<?xml version="1.0" encoding="UTF-8" standalone="no" ?>
<gpx xmlns="http://www.topografix.com/GPX/1/1" xmlns:xsi="http://www.w3.org/2001/XMLSchema-instance" xsi:schemaLocation="http://www.topografix.com/GPX/1/1 http://www.topografix.com/GPX/1/1/gpx.xsd" version="1.1" creator="VisuGPX - https://www.visugpx.com">
  <metadata>
    <name>Soustons 1</name>
    <desc><![CDATA[Cheminez sur la voie verte entre Soustons Lac et Soustons Plage, et découvrez 38 sculptures rêvées par les enfants de CM2 de l'Isle Verte et réalisées par des étudiants en BTS Chaudronnerie.]]></desc>
  </metadata>
  <trk>
    <name><![CDATA[Soustons 1_4]]></name>
    <extensions>
      <line xmlns="http://www.topografix.com/GPX/gpx_style/0/2">
        <color>00FFFF</color>
        <width>4</width>
      </line>
    </extensions>
    <trkseg>
      <trkpt lat="43.75425" lon="-1.33585">
        <ele>5.102049</ele>
        <time>2021-08-15T13:58:41.497Z</time>
      </trkpt>
      <trkpt lat="43.75455" lon="-1.33559">
        <ele>4.908461</ele>
        <time>2021-08-15T13:58:49.129Z</time>
      </trkpt>
      <trkpt lat="43.75494" lon="-1.33526">
        <ele>4.660138</ele>
        <time>2021-08-15T13:58:58.803Z</time>
      </trkpt>
      <trkpt lat="43.75495" lon="-1.33528">
        <ele>4.650431</ele>
        <time>2021-08-15T13:58:59.084Z</time>
      </trkpt>
      <trkpt lat="43.75557" lon="-1.3368">
        <ele>4.170385</ele>
        <time>2021-08-15T13:59:24.736Z</time>
      </trkpt>
      <trkpt lat="43.75561" lon="-1.33693">
        <ele>4.170063</ele>
        <time>2021-08-15T13:59:26.930Z</time>
      </trkpt>
      <trkpt lat="43.75563" lon="-1.33696">
        <ele>4.169988</ele>
        <time>2021-08-15T13:59:27.379Z</time>
      </trkpt>
      <trkpt lat="43.75568" lon="-1.33696">
        <ele>4.169813</ele>
        <time>2021-08-15T13:59:28.436Z</time>
      </trkpt>
      <trkpt lat="43.75582" lon="-1.33698">
        <ele>4.169386</ele>
        <time>2021-08-15T13:59:31.376Z</time>
      </trkpt>
      <trkpt lat="43.75684" lon="-1.33668">
        <ele>4.166132</ele>
        <time>2021-08-15T13:59:55.406Z</time>
      </trkpt>
      <trkpt lat="43.75689" lon="-1.33668">
        <ele>4.165991</ele>
        <time>2021-08-15T13:59:56.474Z</time>
      </trkpt>
      <trkpt lat="43.75692" lon="-1.33673">
        <ele>4.190725</ele>
        <time>2021-08-15T13:59:57.973Z</time>
      </trkpt>
      <trkpt lat="43.75709" lon="-1.33727">
        <ele>4.445389</ele>
        <time>2021-08-15T14:00:08.660Z</time>
      </trkpt>
      <trkpt lat="43.75741" lon="-1.33726">
        <ele>4.637733</ele>
        <time>2021-08-15T14:00:16.834Z</time>
      </trkpt>
      <trkpt lat="43.75764" lon="-1.33756">
        <ele>4.828146</ele>
        <time>2021-08-15T14:00:24.793Z</time>
      </trkpt>
      <trkpt lat="43.75823" lon="-1.33749">
        <ele>5.179214</ele>
        <time>2021-08-15T14:00:39.290Z</time>
      </trkpt>
      <trkpt lat="43.7583" lon="-1.33748">
        <ele>5.224783</ele>
        <time>2021-08-15T14:00:41.418Z</time>
      </trkpt>
      <trkpt lat="43.75848" lon="-1.3373">
        <ele>5.259379</ele>
        <time>2021-08-15T14:00:46.745Z</time>
      </trkpt>
      <trkpt lat="43.75852" lon="-1.33727">
        <ele>5.263408</ele>
        <time>2021-08-15T14:00:47.778Z</time>
      </trkpt>
      <trkpt lat="43.75859" lon="-1.33731">
        <ele>5.269807</ele>
        <time>2021-08-15T14:00:49.869Z</time>
      </trkpt>
      <trkpt lat="43.75868" lon="-1.33731">
        <ele>5.277323</ele>
        <time>2021-08-15T14:00:52.004Z</time>
      </trkpt>
      <trkpt lat="43.75897" lon="-1.33724">
        <ele>5.302519</ele>
        <time>2021-08-15T14:00:59.096Z</time>
      </trkpt>
      <trkpt lat="43.75916" lon="-1.33716">
        <ele>5.319092</ele>
        <time>2021-08-15T14:01:03.508Z</time>
      </trkpt>
      <trkpt lat="43.75917" lon="-1.33715">
        <ele>5.32007</ele>
        <time>2021-08-15T14:01:03.758Z</time>
      </trkpt>
      <trkpt lat="43.75925" lon="-1.33712">
        <ele>5.326796</ele>
        <time>2021-08-15T14:01:05.492Z</time>
      </trkpt>
      <trkpt lat="43.75926" lon="-1.33711">
        <ele>5.328513</ele>
        <time>2021-08-15T14:01:06.016Z</time>
      </trkpt>
      <trkpt lat="43.75977" lon="-1.33686">
        <ele>5.374023</ele>
        <time>2021-08-15T14:01:18.273Z</time>
      </trkpt>
      <trkpt lat="43.76004" lon="-1.33636">
        <ele>5.411823</ele>
        <time>2021-08-15T14:01:28.354Z</time>
      </trkpt>
      <trkpt lat="43.76029" lon="-1.33583">
        <ele>5.449983</ele>
        <time>2021-08-15T14:01:39.173Z</time>
      </trkpt>
      <trkpt lat="43.76076" lon="-1.33484">
        <ele>5.521435</ele>
        <time>2021-08-15T14:01:59.521Z</time>
      </trkpt>
      <trkpt lat="43.76105" lon="-1.33428">
        <ele>5.596192</ele>
        <time>2021-08-15T14:02:11.309Z</time>
      </trkpt>
      <trkpt lat="43.76096" lon="-1.33406">
        <ele>5.639402</ele>
        <time>2021-08-15T14:02:15.782Z</time>
      </trkpt>
      <trkpt lat="43.76089" lon="-1.33395">
        <ele>5.666208</ele>
        <time>2021-08-15T14:02:18.469Z</time>
      </trkpt>
      <trkpt lat="43.76081" lon="-1.33377">
        <ele>5.701783</ele>
        <time>2021-08-15T14:02:22.423Z</time>
      </trkpt>
      <trkpt lat="43.76083" lon="-1.33376">
        <ele>5.707642</ele>
        <time>2021-08-15T14:02:22.887Z</time>
      </trkpt>
      <trkpt lat="43.76089" lon="-1.3337">
        <ele>5.7266</ele>
        <time>2021-08-15T14:02:24.844Z</time>
      </trkpt>
      <trkpt lat="43.76172" lon="-1.33327">
        <ele>5.937833</ele>
        <time>2021-08-15T14:02:46.296Z</time>
      </trkpt>
      <trkpt lat="43.76176" lon="-1.33324">
        <ele>5.948846</ele>
        <time>2021-08-15T14:02:47.604Z</time>
      </trkpt>
      <trkpt lat="43.76233" lon="-1.33286">
        <ele>6.010844</ele>
        <time>2021-08-15T14:03:01.996Z</time>
      </trkpt>
      <trkpt lat="43.76273" lon="-1.3325">
        <ele>6.043914</ele>
        <time>2021-08-15T14:03:13.353Z</time>
      </trkpt>
      <trkpt lat="43.76433" lon="-1.33088">
        <ele>6.040253</ele>
        <time>2021-08-15T14:03:59.252Z</time>
      </trkpt>
      <trkpt lat="43.7666" lon="-1.32857">
        <ele>5.844657</ele>
        <time>2021-08-15T14:05:03.040Z</time>
      </trkpt>
      <trkpt lat="43.76762" lon="-1.32754">
        <ele>6.036558</ele>
        <time>2021-08-15T14:05:33.605Z</time>
      </trkpt>
      <trkpt lat="43.76769" lon="-1.32744">
        <ele>6.051598</ele>
        <time>2021-08-15T14:05:37.442Z</time>
      </trkpt>
      <trkpt lat="43.76813" lon="-1.32665">
        <ele>6.134955</ele>
        <time>2021-08-15T14:06:05.139Z</time>
      </trkpt>
      <trkpt lat="43.76844" lon="-1.32608">
        <ele>6.193463</ele>
        <time>2021-08-15T14:06:24.539Z</time>
      </trkpt>
      <trkpt lat="43.76814" lon="-1.32389">
        <ele>6.367152</ele>
        <time>2021-08-15T14:07:23.931Z</time>
      </trkpt>
      <trkpt lat="43.76819" lon="-1.32338">
        <ele>6.406235</ele>
        <time>2021-08-15T14:07:37.919Z</time>
      </trkpt>
      <trkpt lat="43.76811" lon="-1.32314">
        <ele>6.426107</ele>
        <time>2021-08-15T14:07:45.351Z</time>
      </trkpt>
      <trkpt lat="43.76806" lon="-1.32298">
        <ele>6.438845</ele>
        <time>2021-08-15T14:07:49.888Z</time>
      </trkpt>
      <trkpt lat="43.76801" lon="-1.32279">
        <ele>6.487376</ele>
        <time>2021-08-15T14:07:55.895Z</time>
      </trkpt>
      <trkpt lat="43.76783" lon="-1.32153">
        <ele>7.182861</ele>
        <time>2021-08-15T14:08:32.658Z</time>
      </trkpt>
      <trkpt lat="43.76782" lon="-1.32134">
        <ele>7.290366</ele>
        <time>2021-08-15T14:08:38.642Z</time>
      </trkpt>
      <trkpt lat="43.7678" lon="-1.32108">
        <ele>7.428948</ele>
        <time>2021-08-15T14:08:46.026Z</time>
      </trkpt>
      <trkpt lat="43.76781" lon="-1.31971">
        <ele>7.971289</ele>
        <time>2021-08-15T14:09:26.706Z</time>
      </trkpt>
      <trkpt lat="43.76836" lon="-1.31669">
        <ele>8.147019</ele>
        <time>2021-08-15T14:10:51.021Z</time>
      </trkpt>
      <trkpt lat="43.76844" lon="-1.31625">
        <ele>8.054633</ele>
        <time>2021-08-15T14:11:02.373Z</time>
      </trkpt>
      <trkpt lat="43.76849" lon="-1.31602">
        <ele>8.004589</ele>
        <time>2021-08-15T14:11:08.412Z</time>
      </trkpt>
      <trkpt lat="43.76897" lon="-1.31412">
        <ele>7.212285</ele>
        <time>2021-08-15T14:11:59.060Z</time>
      </trkpt>
      <trkpt lat="43.76911" lon="-1.3136">
        <ele>6.962084</ele>
        <time>2021-08-15T14:12:13.128Z</time>
      </trkpt>
      <trkpt lat="43.76918" lon="-1.31336">
        <ele>6.84243</ele>
        <time>2021-08-15T14:12:19.801Z</time>
      </trkpt>
      <trkpt lat="43.76925" lon="-1.31302">
        <ele>6.681077</ele>
        <time>2021-08-15T14:12:28.744Z</time>
      </trkpt>
      <trkpt lat="43.76945" lon="-1.31258">
        <ele>6.446191</ele>
        <time>2021-08-15T14:12:41.669Z</time>
      </trkpt>
      <trkpt lat="43.77" lon="-1.31149">
        <ele>5.842859</ele>
        <time>2021-08-15T14:13:15.137Z</time>
      </trkpt>
      <trkpt lat="43.77013" lon="-1.31117">
        <ele>5.681151</ele>
        <time>2021-08-15T14:13:24.004Z</time>
      </trkpt>
      <trkpt lat="43.77017" lon="-1.31085">
        <ele>5.665873</ele>
        <time>2021-08-15T14:13:29.070Z</time>
      </trkpt>
      <trkpt lat="43.77029" lon="-1.31036">
        <ele>5.707504</ele>
        <time>2021-08-15T14:13:37.545Z</time>
      </trkpt>
      <trkpt lat="43.77051" lon="-1.3098">
        <ele>5.758651</ele>
        <time>2021-08-15T14:13:48.348Z</time>
      </trkpt>
      <trkpt lat="43.77051" lon="-1.30965">
        <ele>5.770803</ele>
        <time>2021-08-15T14:13:51.062Z</time>
      </trkpt>
      <trkpt lat="43.76997" lon="-1.30917">
        <ele>5.841494</ele>
        <time>2021-08-15T14:14:07.067Z</time>
      </trkpt>
      <trkpt lat="43.77065" lon="-1.30784">
        <ele>6.490115</ele>
        <time>2021-08-15T14:14:37.563Z</time>
      </trkpt>
      <trkpt lat="43.77113" lon="-1.30677">
        <ele>6.872412</ele>
        <time>2021-08-15T14:15:00.444Z</time>
      </trkpt>
      <trkpt lat="43.77101" lon="-1.30643">
        <ele>6.881848</ele>
        <time>2021-08-15T14:15:06.966Z</time>
      </trkpt>
      <trkpt lat="43.77153" lon="-1.30516">
        <ele>6.919073</ele>
        <time>2021-08-15T14:15:31.513Z</time>
      </trkpt>
      <trkpt lat="43.77188" lon="-1.30442">
        <ele>6.821261</ele>
        <time>2021-08-15T14:15:45.255Z</time>
      </trkpt>
      <trkpt lat="43.77237" lon="-1.30374">
        <ele>6.642331</ele>
        <time>2021-08-15T14:16:00.192Z</time>
      </trkpt>
      <trkpt lat="43.77243" lon="-1.30339">
        <ele>6.577129</ele>
        <time>2021-08-15T14:16:05.913Z</time>
      </trkpt>
      <trkpt lat="43.77243" lon="-1.30332">
        <ele>6.562625</ele>
        <time>2021-08-15T14:16:07.022Z</time>
      </trkpt>
      <trkpt lat="43.77257" lon="-1.30321">
        <ele>6.521661</ele>
        <time>2021-08-15T14:16:10.690Z</time>
      </trkpt>
      <trkpt lat="43.77299" lon="-1.30279">
        <ele>6.627452</ele>
        <time>2021-08-15T14:16:23.301Z</time>
      </trkpt>
      <trkpt lat="43.77356" lon="-1.3025">
        <ele>6.971014</ele>
        <time>2021-08-15T14:16:38.328Z</time>
      </trkpt>
      <trkpt lat="43.77372" lon="-1.30242">
        <ele>7.06819</ele>
        <time>2021-08-15T14:16:42.700Z</time>
      </trkpt>
      <trkpt lat="43.77392" lon="-1.30231">
        <ele>7.188559</ele>
        <time>2021-08-15T14:16:48.176Z</time>
      </trkpt>
      <trkpt lat="43.77398" lon="-1.30229">
        <ele>7.220448</ele>
        <time>2021-08-15T14:16:49.748Z</time>
      </trkpt>
      <trkpt lat="43.7741" lon="-1.30225">
        <ele>7.292969</ele>
        <time>2021-08-15T14:16:53.336Z</time>
      </trkpt>
      <trkpt lat="43.77411" lon="-1.30216">
        <ele>7.328857</ele>
        <time>2021-08-15T14:16:54.816Z</time>
      </trkpt>
      <trkpt lat="43.77419" lon="-1.3021">
        <ele>7.380817</ele>
        <time>2021-08-15T14:16:57.390Z</time>
      </trkpt>
      <trkpt lat="43.7745" lon="-1.30195">
        <ele>7.627939</ele>
        <time>2021-08-15T14:17:06.364Z</time>
      </trkpt>
      <trkpt lat="43.7752" lon="-1.30201">
        <ele>8.309346</ele>
        <time>2021-08-15T14:17:26.015Z</time>
      </trkpt>
      <trkpt lat="43.77559" lon="-1.30209">
        <ele>8.686646</ele>
        <time>2021-08-15T14:17:36.578Z</time>
      </trkpt>
      <trkpt lat="43.77603" lon="-1.30218">
        <ele>9.110777</ele>
        <time>2021-08-15T14:17:53.994Z</time>
      </trkpt>
      <trkpt lat="43.77763" lon="-1.30246">
        <ele>10.618777</ele>
        <time>2021-08-15T14:18:59.421Z</time>
      </trkpt>
      <trkpt lat="43.77788" lon="-1.30251">
        <ele>10.862427</ele>
        <time>2021-08-15T14:19:10.159Z</time>
      </trkpt>
      <trkpt lat="43.77891" lon="-1.30261">
        <ele>11.917607</ele>
        <time>2021-08-15T14:19:53.477Z</time>
      </trkpt>
      <trkpt lat="43.77938" lon="-1.30251">
        <ele>12.400509</ele>
        <time>2021-08-15T14:20:12.842Z</time>
      </trkpt>
      <trkpt lat="43.7798" lon="-1.30232">
        <ele>12.772725</ele>
        <time>2021-08-15T14:20:30.891Z</time>
      </trkpt>
      <trkpt lat="43.77999" lon="-1.30226">
        <ele>12.827427</ele>
        <time>2021-08-15T14:20:38.216Z</time>
      </trkpt>
      <trkpt lat="43.7803" lon="-1.30207">
        <ele>12.92416</ele>
        <time>2021-08-15T14:20:51.190Z</time>
      </trkpt>
      <trkpt lat="43.78052" lon="-1.30185">
        <ele>13.004454</ele>
        <time>2021-08-15T14:21:01.870Z</time>
      </trkpt>
      <trkpt lat="43.7808" lon="-1.30182">
        <ele>13.082654</ele>
        <time>2021-08-15T14:21:12.244Z</time>
      </trkpt>
      <trkpt lat="43.78106" lon="-1.3018">
        <ele>13.158431</ele>
        <time>2021-08-15T14:21:22.022Z</time>
      </trkpt>
      <trkpt lat="43.78118" lon="-1.30176">
        <ele>13.195102</ele>
        <time>2021-08-15T14:21:26.788Z</time>
      </trkpt>
      <trkpt lat="43.78126" lon="-1.30164">
        <ele>13.228221</ele>
        <time>2021-08-15T14:21:30.908Z</time>
      </trkpt>
      <trkpt lat="43.78195" lon="-1.30178">
        <ele>13.127495</ele>
        <time>2021-08-15T14:21:56.867Z</time>
      </trkpt>
      <trkpt lat="43.78256" lon="-1.30189">
        <ele>12.998701</ele>
        <time>2021-08-15T14:22:19.426Z</time>
      </trkpt>
      <trkpt lat="43.78272" lon="-1.30202">
        <ele>12.959589</ele>
        <time>2021-08-15T14:22:26.003Z</time>
      </trkpt>
      <trkpt lat="43.78288" lon="-1.30224">
        <ele>12.913103</ele>
        <time>2021-08-15T14:22:34.168Z</time>
      </trkpt>
      <trkpt lat="43.78306" lon="-1.30253">
        <ele>12.743805</ele>
        <time>2021-08-15T14:22:39.941Z</time>
      </trkpt>
      <trkpt lat="43.78396" lon="-1.30391">
        <ele>11.104879</ele>
        <time>2021-08-15T14:23:05.630Z</time>
      </trkpt>
      <trkpt lat="43.78474" lon="-1.30453">
        <ele>9.767925</ele>
        <time>2021-08-15T14:23:21.307Z</time>
      </trkpt>
      <trkpt lat="43.78505" lon="-1.30483">
        <ele>9.138356</ele>
        <time>2021-08-15T14:23:27.961Z</time>
      </trkpt>
      <trkpt lat="43.78504" lon="-1.30501">
        <ele>8.926721</ele>
        <time>2021-08-15T14:23:31.251Z</time>
      </trkpt>
      <trkpt lat="43.7852" lon="-1.30514">
        <ele>8.604646</ele>
        <time>2021-08-15T14:23:35.876Z</time>
      </trkpt>
      <trkpt lat="43.78605" lon="-1.30586">
        <ele>7.614674</ele>
        <time>2021-08-15T14:24:01.232Z</time>
      </trkpt>
      <trkpt lat="43.78614" lon="-1.30597">
        <ele>7.591315</ele>
        <time>2021-08-15T14:24:04.445Z</time>
      </trkpt>
      <trkpt lat="43.78658" lon="-1.30705">
        <ele>7.422232</ele>
        <time>2021-08-15T14:24:26.656Z</time>
      </trkpt>
      <trkpt lat="43.78703" lon="-1.3082">
        <ele>7.276637</ele>
        <time>2021-08-15T14:24:49.405Z</time>
      </trkpt>
      <trkpt lat="43.78705" lon="-1.30831">
        <ele>7.265449</ele>
        <time>2021-08-15T14:24:51.374Z</time>
      </trkpt>
      <trkpt lat="43.78711" lon="-1.30913">
        <ele>7.184916</ele>
        <time>2021-08-15T14:25:04.807Z</time>
      </trkpt>
      <trkpt lat="43.78715" lon="-1.30974">
        <ele>7.124729</ele>
        <time>2021-08-15T14:25:14.397Z</time>
      </trkpt>
      <trkpt lat="43.78717" lon="-1.30999">
        <ele>7.075598</ele>
        <time>2021-08-15T14:25:18.196Z</time>
      </trkpt>
      <trkpt lat="43.78719" lon="-1.31018">
        <ele>7.026041</ele>
        <time>2021-08-15T14:25:20.886Z</time>
      </trkpt>
      <trkpt lat="43.78735" lon="-1.312">
        <ele>6.544123</ele>
        <time>2021-08-15T14:25:49.331Z</time>
      </trkpt>
      <trkpt lat="43.78738" lon="-1.31247">
        <ele>6.562989</ele>
        <time>2021-08-15T14:25:57.473Z</time>
      </trkpt>
      <trkpt lat="43.7874" lon="-1.31262">
        <ele>6.664081</ele>
        <time>2021-08-15T14:26:00.414Z</time>
      </trkpt>
      <trkpt lat="43.78753" lon="-1.31258">
        <ele>6.786706</ele>
        <time>2021-08-15T14:26:03.797Z</time>
      </trkpt>
      <trkpt lat="43.78779" lon="-1.31239">
        <ele>7.060311</ele>
        <time>2021-08-15T14:26:11.643Z</time>
      </trkpt>
      <trkpt lat="43.78927" lon="-1.31131">
        <ele>8.598783</ele>
        <time>2021-08-15T14:26:58.625Z</time>
      </trkpt>
      <trkpt lat="43.79008" lon="-1.31053">
        <ele>9.485989</ele>
        <time>2021-08-15T14:27:24.742Z</time>
      </trkpt>
      <trkpt lat="43.79052" lon="-1.31004">
        <ele>9.884328</ele>
        <time>2021-08-15T14:27:39.533Z</time>
      </trkpt>
      <trkpt lat="43.79145" lon="-1.30874">
        <ele>10.512315</ele>
        <time>2021-08-15T14:28:11.868Z</time>
      </trkpt>
      <trkpt lat="43.79184" lon="-1.30792">
        <ele>11.325909</ele>
        <time>2021-08-15T14:28:30.326Z</time>
      </trkpt>
      <trkpt lat="43.7921" lon="-1.30769">
        <ele>11.754343</ele>
        <time>2021-08-15T14:28:38.615Z</time>
      </trkpt>
      <trkpt lat="43.79219" lon="-1.30762">
        <ele>11.896183</ele>
        <time>2021-08-15T14:28:41.582Z</time>
      </trkpt>
      <trkpt lat="43.79231" lon="-1.30756">
        <ele>12.078733</ele>
        <time>2021-08-15T14:28:45.199Z</time>
      </trkpt>
      <trkpt lat="43.79254" lon="-1.30751">
        <ele>12.400843</ele>
        <time>2021-08-15T14:28:52.004Z</time>
      </trkpt>
      <trkpt lat="43.7938" lon="-1.30759">
        <ele>14.898626</ele>
        <time>2021-08-15T14:29:32.909Z</time>
      </trkpt>
      <trkpt lat="43.79462" lon="-1.30718">
        <ele>16.98267</ele>
        <time>2021-08-15T14:30:02.619Z</time>
      </trkpt>
      <trkpt lat="43.79511" lon="-1.30701">
        <ele>17.764719</ele>
        <time>2021-08-15T14:30:18.402Z</time>
      </trkpt>
      <trkpt lat="43.79541" lon="-1.30675">
        <ele>18.13312</ele>
        <time>2021-08-15T14:30:28.907Z</time>
      </trkpt>
      <trkpt lat="43.79549" lon="-1.30667">
        <ele>18.237328</ele>
        <time>2021-08-15T14:30:32.235Z</time>
      </trkpt>
      <trkpt lat="43.7956" lon="-1.30657">
        <ele>18.36662</ele>
        <time>2021-08-15T14:30:35.265Z</time>
      </trkpt>
      <trkpt lat="43.79595" lon="-1.30624">
        <ele>18.80852</ele>
        <time>2021-08-15T14:30:46.601Z</time>
      </trkpt>
      <trkpt lat="43.79712" lon="-1.30477">
        <ele>19.172615</ele>
        <time>2021-08-15T14:31:22.284Z</time>
      </trkpt>
      <trkpt lat="43.79763" lon="-1.30343">
        <ele>19.168891</ele>
        <time>2021-08-15T14:31:46.970Z</time>
      </trkpt>
      <trkpt lat="43.79772" lon="-1.30329">
        <ele>19.194185</ele>
        <time>2021-08-15T14:31:50.048Z</time>
      </trkpt>
      <trkpt lat="43.79805" lon="-1.30292">
        <ele>19.27468</ele>
        <time>2021-08-15T14:32:00.164Z</time>
      </trkpt>
      <trkpt lat="43.7982" lon="-1.30276">
        <ele>19.310483</ele>
        <time>2021-08-15T14:32:04.616Z</time>
      </trkpt>
      <trkpt lat="43.79825" lon="-1.30274">
        <ele>19.32049</ele>
        <time>2021-08-15T14:32:05.989Z</time>
      </trkpt>
      <trkpt lat="43.79852" lon="-1.30253">
        <ele>19.379271</ele>
        <time>2021-08-15T14:32:13.509Z</time>
      </trkpt>
      <trkpt lat="43.79859" lon="-1.30253">
        <ele>19.393065</ele>
        <time>2021-08-15T14:32:15.342Z</time>
      </trkpt>
      <trkpt lat="43.7986" lon="-1.30248">
        <ele>19.400454</ele>
        <time>2021-08-15T14:32:16.204Z</time>
      </trkpt>
      <trkpt lat="43.79872" lon="-1.30251">
        <ele>19.423156</ele>
        <time>2021-08-15T14:32:19.278Z</time>
      </trkpt>
      <trkpt lat="43.79872" lon="-1.30251">
        <ele>19.423739</ele>
        <time>2021-08-15T14:32:19.339Z</time>
      </trkpt>
      <trkpt lat="43.79885" lon="-1.30256">
        <ele>19.504486</ele>
        <time>2021-08-15T14:32:22.382Z</time>
      </trkpt>
      <trkpt lat="43.79902" lon="-1.30265">
        <ele>19.675919</ele>
        <time>2021-08-15T14:32:26.915Z</time>
      </trkpt>
      <trkpt lat="43.79903" lon="-1.30263">
        <ele>19.692034</ele>
        <time>2021-08-15T14:32:27.421Z</time>
      </trkpt>
      <trkpt lat="43.7991" lon="-1.30263">
        <ele>19.752536</ele>
        <time>2021-08-15T14:32:29.182Z</time>
      </trkpt>
      <trkpt lat="43.79911" lon="-1.30265">
        <ele>19.768748</ele>
        <time>2021-08-15T14:32:29.615Z</time>
      </trkpt>
      <trkpt lat="43.79911" lon="-1.30269">
        <ele>19.791905</ele>
        <time>2021-08-15T14:32:30.222Z</time>
      </trkpt>
      <trkpt lat="43.79911" lon="-1.30272">
        <ele>19.814214</ele>
        <time>2021-08-15T14:32:30.826Z</time>
      </trkpt>
      <trkpt lat="43.79909" lon="-1.30274">
        <ele>19.837425</ele>
        <time>2021-08-15T14:32:31.517Z</time>
      </trkpt>
      <trkpt lat="43.79907" lon="-1.30276">
        <ele>19.859953</ele>
        <time>2021-08-15T14:32:32.278Z</time>
      </trkpt>
      <trkpt lat="43.79911" lon="-1.30289">
        <ele>19.955545</ele>
        <time>2021-08-15T14:32:34.963Z</time>
      </trkpt>
      <trkpt lat="43.79914" lon="-1.30288">
        <ele>19.983062</ele>
        <time>2021-08-15T14:32:35.714Z</time>
      </trkpt>
      <trkpt lat="43.79928" lon="-1.30327">
        <ele>20.276255</ele>
        <time>2021-08-15T14:32:44.581Z</time>
      </trkpt>
      <trkpt lat="43.7993" lon="-1.30334">
        <ele>20.321404</ele>
        <time>2021-08-15T14:32:45.840Z</time>
      </trkpt>
      <trkpt lat="43.79932" lon="-1.30342">
        <ele>20.380553</ele>
        <time>2021-08-15T14:32:47.763Z</time>
      </trkpt>
      <trkpt lat="43.79948" lon="-1.30407">
        <ele>20.836098</ele>
        <time>2021-08-15T14:33:01.407Z</time>
      </trkpt>
      <trkpt lat="43.7996" lon="-1.30566">
        <ele>21.776147</ele>
        <time>2021-08-15T14:33:32.833Z</time>
      </trkpt>
      <trkpt lat="43.79963" lon="-1.30635">
        <ele>22.164916</ele>
        <time>2021-08-15T14:33:45.953Z</time>
      </trkpt>
      <trkpt lat="43.79964" lon="-1.30643">
        <ele>22.213311</ele>
        <time>2021-08-15T14:33:47.463Z</time>
      </trkpt>
      <trkpt lat="43.79964" lon="-1.30656">
        <ele>22.288583</ele>
        <time>2021-08-15T14:33:49.836Z</time>
      </trkpt>
      <trkpt lat="43.79972" lon="-1.30667">
        <ele>22.370393</ele>
        <time>2021-08-15T14:33:52.318Z</time>
      </trkpt>
      <trkpt lat="43.80016" lon="-1.30727">
        <ele>22.559285</ele>
        <time>2021-08-15T14:34:06.998Z</time>
      </trkpt>
      <trkpt lat="43.80029" lon="-1.30763">
        <ele>22.600243</ele>
        <time>2021-08-15T14:34:13.489Z</time>
      </trkpt>
      <trkpt lat="43.80037" lon="-1.30974">
        <ele>23.218987</ele>
        <time>2021-08-15T14:34:47.470Z</time>
      </trkpt>
      <trkpt lat="43.80073" lon="-1.31099">
        <ele>24.173372</ele>
        <time>2021-08-15T14:35:13.408Z</time>
      </trkpt>
      <trkpt lat="43.80085" lon="-1.31117">
        <ele>24.348871</ele>
        <time>2021-08-15T14:35:18.587Z</time>
      </trkpt>
      <trkpt lat="43.80145" lon="-1.31173">
        <ele>25.676963</ele>
        <time>2021-08-15T14:35:40.692Z</time>
      </trkpt>
      <trkpt lat="43.80195" lon="-1.3118">
        <ele>26.741629</ele>
        <time>2021-08-15T14:35:56.968Z</time>
      </trkpt>
      <trkpt lat="43.80207" lon="-1.31188">
        <ele>27.017121</ele>
        <time>2021-08-15T14:36:01.281Z</time>
      </trkpt>
      <trkpt lat="43.80248" lon="-1.31227">
        <ele>28.067234</ele>
        <time>2021-08-15T14:36:16.936Z</time>
      </trkpt>
      <trkpt lat="43.80275" lon="-1.31286">
        <ele>28.462312</ele>
        <time>2021-08-15T14:36:31.200Z</time>
      </trkpt>
      <trkpt lat="43.80303" lon="-1.31313">
        <ele>28.600125</ele>
        <time>2021-08-15T14:36:39.864Z</time>
      </trkpt>
      <trkpt lat="43.8032" lon="-1.31329">
        <ele>28.685945</ele>
        <time>2021-08-15T14:36:45.095Z</time>
      </trkpt>
      <trkpt lat="43.80339" lon="-1.31346">
        <ele>28.780604</ele>
        <time>2021-08-15T14:36:50.171Z</time>
      </trkpt>
      <trkpt lat="43.80386" lon="-1.31399">
        <ele>29.030317</ele>
        <time>2021-08-15T14:37:02.779Z</time>
      </trkpt>
      <trkpt lat="43.80444" lon="-1.31479">
        <ele>28.062664</ele>
        <time>2021-08-15T14:37:18.048Z</time>
      </trkpt>
      <trkpt lat="43.80472" lon="-1.31584">
        <ele>27.06428</ele>
        <time>2021-08-15T14:37:32.802Z</time>
      </trkpt>
      <trkpt lat="43.80494" lon="-1.31626">
        <ele>26.80764</ele>
        <time>2021-08-15T14:37:39.777Z</time>
      </trkpt>
      <trkpt lat="43.80511" lon="-1.31693">
        <ele>26.776704</ele>
        <time>2021-08-15T14:37:50.314Z</time>
      </trkpt>
      <trkpt lat="43.80558" lon="-1.31784">
        <ele>26.727712</ele>
        <time>2021-08-15T14:38:09.634Z</time>
      </trkpt>
      <trkpt lat="43.80561" lon="-1.31788">
        <ele>26.725438</ele>
        <time>2021-08-15T14:38:10.500Z</time>
      </trkpt>
      <trkpt lat="43.80582" lon="-1.31821">
        <ele>26.728316</ele>
        <time>2021-08-15T14:38:18.440Z</time>
      </trkpt>
      <trkpt lat="43.80606" lon="-1.31844">
        <ele>26.834761</ele>
        <time>2021-08-15T14:38:25.855Z</time>
      </trkpt>
      <trkpt lat="43.80619" lon="-1.31866">
        <ele>26.905722</ele>
        <time>2021-08-15T14:38:31.252Z</time>
      </trkpt>
      <trkpt lat="43.80754" lon="-1.32155">
        <ele>27.212652</ele>
        <time>2021-08-15T14:39:28.363Z</time>
      </trkpt>
      <trkpt lat="43.80757" lon="-1.32168">
        <ele>27.201941</ele>
        <time>2021-08-15T14:39:30.256Z</time>
      </trkpt>
      <trkpt lat="43.80799" lon="-1.32355">
        <ele>26.685221</ele>
        <time>2021-08-15T14:39:58.683Z</time>
      </trkpt>
      <trkpt lat="43.80851" lon="-1.3243">
        <ele>26.319041</ele>
        <time>2021-08-15T14:40:14.318Z</time>
      </trkpt>
      <trkpt lat="43.80904" lon="-1.32602">
        <ele>26.192871</ele>
        <time>2021-08-15T14:40:44.275Z</time>
      </trkpt>
      <trkpt lat="43.80912" lon="-1.32795">
        <ele>26.097639</ele>
        <time>2021-08-15T14:41:15.174Z</time>
      </trkpt>
      <trkpt lat="43.80932" lon="-1.3297">
        <ele>26.015402</ele>
        <time>2021-08-15T14:41:43.163Z</time>
      </trkpt>
      <trkpt lat="43.81101" lon="-1.3367">
        <ele>25.900357</ele>
        <time>2021-08-15T14:43:41.280Z</time>
      </trkpt>
      <trkpt lat="43.81153" lon="-1.33834">
        <ele>26.334992</ele>
        <time>2021-08-15T14:44:09.913Z</time>
      </trkpt>
      <trkpt lat="43.81216" lon="-1.33954">
        <ele>29.110839</ele>
        <time>2021-08-15T14:44:40.926Z</time>
      </trkpt>
      <trkpt lat="43.81249" lon="-1.34015">
        <ele>30.909327</ele>
        <time>2021-08-15T14:45:02.794Z</time>
      </trkpt>
      <trkpt lat="43.81274" lon="-1.34037">
        <ele>31.884207</ele>
        <time>2021-08-15T14:45:15.485Z</time>
      </trkpt>
      <trkpt lat="43.81319" lon="-1.34">
        <ele>34.046295</ele>
        <time>2021-08-15T14:45:38.101Z</time>
      </trkpt>
      <trkpt lat="43.8134" lon="-1.33988">
        <ele>35.056056</ele>
        <time>2021-08-15T14:45:49.212Z</time>
      </trkpt>
      <trkpt lat="43.81357" lon="-1.33998">
        <ele>35.852411</ele>
        <time>2021-08-15T14:45:56.874Z</time>
      </trkpt>
      <trkpt lat="43.81368" lon="-1.34013">
        <ele>36.56804</ele>
        <time>2021-08-15T14:46:04.390Z</time>
      </trkpt>
      <trkpt lat="43.814" lon="-1.3416">
        <ele>40.327549</ele>
        <time>2021-08-15T14:46:45.876Z</time>
      </trkpt>
      <trkpt lat="43.8141" lon="-1.34241">
        <ele>40.485222</ele>
        <time>2021-08-15T14:47:00.583Z</time>
      </trkpt>
      <trkpt lat="43.81432" lon="-1.34422">
        <ele>40.389953</ele>
        <time>2021-08-15T14:47:26.985Z</time>
      </trkpt>
      <trkpt lat="43.8145" lon="-1.34517">
        <ele>39.767781</ele>
        <time>2021-08-15T14:47:41.068Z</time>
      </trkpt>
      <trkpt lat="43.81457" lon="-1.34692">
        <ele>38.434448</ele>
        <time>2021-08-15T14:48:09.012Z</time>
      </trkpt>
      <trkpt lat="43.81455" lon="-1.34857">
        <ele>36.918319</ele>
        <time>2021-08-15T14:48:32.163Z</time>
      </trkpt>
      <trkpt lat="43.81408" lon="-1.35149">
        <ele>30.973534</ele>
        <time>2021-08-15T14:49:08.943Z</time>
      </trkpt>
      <trkpt lat="43.81407" lon="-1.35214">
        <ele>30.334436</ele>
        <time>2021-08-15T14:49:17.293Z</time>
      </trkpt>
      <trkpt lat="43.81401" lon="-1.35635">
        <ele>29.226392</ele>
        <time>2021-08-15T14:50:27.448Z</time>
      </trkpt>
      <trkpt lat="43.81389" lon="-1.36053">
        <ele>31.298728</ele>
        <time>2021-08-15T14:51:49.918Z</time>
      </trkpt>
      <trkpt lat="43.81395" lon="-1.36098">
        <ele>31.477651</ele>
        <time>2021-08-15T14:51:57.379Z</time>
      </trkpt>
      <trkpt lat="43.81449" lon="-1.36514">
        <ele>25.997498</ele>
        <time>2021-08-15T14:52:54.848Z</time>
      </trkpt>
      <trkpt lat="43.81487" lon="-1.36812">
        <ele>20.290152</ele>
        <time>2021-08-15T14:53:32.539Z</time>
      </trkpt>
      <trkpt lat="43.81489" lon="-1.36811">
        <ele>20.220584</ele>
        <time>2021-08-15T14:53:32.938Z</time>
      </trkpt>
      <trkpt lat="43.81508" lon="-1.36814">
        <ele>19.731328</ele>
        <time>2021-08-15T14:53:36.243Z</time>
      </trkpt>
      <trkpt lat="43.8177" lon="-1.36766">
        <ele>16.553472</ele>
        <time>2021-08-15T14:54:25.473Z</time>
      </trkpt>
      <trkpt lat="43.81844" lon="-1.36753">
        <ele>16.121655</ele>
        <time>2021-08-15T14:54:41.592Z</time>
      </trkpt>
      <trkpt lat="43.81893" lon="-1.36739">
        <ele>16.412807</ele>
        <time>2021-08-15T14:54:53.521Z</time>
      </trkpt>
      <trkpt lat="43.82148" lon="-1.36592">
        <ele>19.123746</ele>
        <time>2021-08-15T14:56:11.977Z</time>
      </trkpt>
      <trkpt lat="43.82319" lon="-1.365">
        <ele>17.872852</ele>
        <time>2021-08-15T14:56:46.543Z</time>
      </trkpt>
      <trkpt lat="43.82415" lon="-1.36445">
        <ele>17.28649</ele>
        <time>2021-08-15T14:57:05.619Z</time>
      </trkpt>
      <trkpt lat="43.82469" lon="-1.36414">
        <ele>17.274989</ele>
        <time>2021-08-15T14:57:18.305Z</time>
      </trkpt>
      <trkpt lat="43.82573" lon="-1.36355">
        <ele>18.019356</ele>
        <time>2021-08-15T14:57:48.991Z</time>
      </trkpt>
      <trkpt lat="43.82999" lon="-1.36114">
        <ele>25.340327</ele>
        <time>2021-08-15T15:00:02.580Z</time>
      </trkpt>
      <trkpt lat="43.83045" lon="-1.36087">
        <ele>25.93293</ele>
        <time>2021-08-15T15:00:15.827Z</time>
      </trkpt>
      <trkpt lat="43.83067" lon="-1.36074">
        <ele>26.058891</ele>
        <time>2021-08-15T15:00:22.062Z</time>
      </trkpt>
      <trkpt lat="43.83251" lon="-1.3597">
        <ele>26.580447</ele>
        <time>2021-08-15T15:01:08.835Z</time>
      </trkpt>
      <trkpt lat="43.83285" lon="-1.35958">
        <ele>26.450092</ele>
        <time>2021-08-15T15:01:16.165Z</time>
      </trkpt>
      <trkpt lat="43.83404" lon="-1.35949">
        <ele>25.654598</ele>
        <time>2021-08-15T15:01:39.565Z</time>
      </trkpt>
      <trkpt lat="43.835" lon="-1.35952">
        <ele>24.301519</ele>
        <time>2021-08-15T15:01:57.294Z</time>
      </trkpt>
      <trkpt lat="43.83505" lon="-1.35953">
        <ele>24.235151</ele>
        <time>2021-08-15T15:01:58.156Z</time>
      </trkpt>
      <trkpt lat="43.83519" lon="-1.35952">
        <ele>24.035965</ele>
        <time>2021-08-15T15:02:00.648Z</time>
      </trkpt>
      <trkpt lat="43.83589" lon="-1.35955">
        <ele>23.291923</ele>
        <time>2021-08-15T15:02:13.087Z</time>
      </trkpt>
      <trkpt lat="43.83669" lon="-1.3594">
        <ele>22.623725</ele>
        <time>2021-08-15T15:02:28.283Z</time>
      </trkpt>
      <trkpt lat="43.83732" lon="-1.35913">
        <ele>22.245576</ele>
        <time>2021-08-15T15:02:42.168Z</time>
      </trkpt>
      <trkpt lat="43.83849" lon="-1.35845">
        <ele>24.423095</ele>
        <time>2021-08-15T15:03:19.964Z</time>
      </trkpt>
      <trkpt lat="43.83935" lon="-1.35794">
        <ele>25.75096</ele>
        <time>2021-08-15T15:03:50.010Z</time>
      </trkpt>
      <trkpt lat="43.84013" lon="-1.35749">
        <ele>26.69898</ele>
        <time>2021-08-15T15:04:13.553Z</time>
      </trkpt>
      <trkpt lat="43.84084" lon="-1.35706">
        <ele>26.933857</ele>
        <time>2021-08-15T15:04:30.030Z</time>
      </trkpt>
      <trkpt lat="43.84186" lon="-1.35645">
        <ele>25.746794</ele>
        <time>2021-08-15T15:04:50.983Z</time>
      </trkpt>
      <trkpt lat="43.84224" lon="-1.35625">
        <ele>25.314172</ele>
        <time>2021-08-15T15:04:58.350Z</time>
      </trkpt>
      <trkpt lat="43.84297" lon="-1.35583">
        <ele>23.827151</ele>
        <time>2021-08-15T15:05:12.565Z</time>
      </trkpt>
      <trkpt lat="43.84369" lon="-1.35535">
        <ele>22.31721</ele>
        <time>2021-08-15T15:05:26.759Z</time>
      </trkpt>
      <trkpt lat="43.84388" lon="-1.35531">
        <ele>21.973088</ele>
        <time>2021-08-15T15:05:29.913Z</time>
      </trkpt>
      <trkpt lat="43.84393" lon="-1.35538">
        <ele>21.851797</ele>
        <time>2021-08-15T15:05:31.195Z</time>
      </trkpt>
      <trkpt lat="43.84403" lon="-1.35546">
        <ele>21.669639</ele>
        <time>2021-08-15T15:05:33.165Z</time>
      </trkpt>
      <trkpt lat="43.84464" lon="-1.3559">
        <ele>20.543195</ele>
        <time>2021-08-15T15:05:45.211Z</time>
      </trkpt>
      <trkpt lat="43.84504" lon="-1.35619">
        <ele>19.823177</ele>
        <time>2021-08-15T15:05:53.045Z</time>
      </trkpt>
      <trkpt lat="43.84649" lon="-1.35724">
        <ele>18.74745</ele>
        <time>2021-08-15T15:06:26.717Z</time>
      </trkpt>
      <trkpt lat="43.84718" lon="-1.35774">
        <ele>18.55785</ele>
        <time>2021-08-15T15:06:45.129Z</time>
      </trkpt>
      <trkpt lat="43.84745" lon="-1.35791">
        <ele>18.494009</ele>
        <time>2021-08-15T15:06:51.727Z</time>
      </trkpt>
      <trkpt lat="43.84779" lon="-1.35801">
        <ele>18.421136</ele>
        <time>2021-08-15T15:06:59.197Z</time>
      </trkpt>
      <trkpt lat="43.84783" lon="-1.35804">
        <ele>18.41096</ele>
        <time>2021-08-15T15:07:00.209Z</time>
      </trkpt>
      <trkpt lat="43.84786" lon="-1.35806">
        <ele>18.405139</ele>
        <time>2021-08-15T15:07:00.849Z</time>
      </trkpt>
      <trkpt lat="43.84788" lon="-1.3581">
        <ele>18.39697</ele>
        <time>2021-08-15T15:07:01.671Z</time>
      </trkpt>
      <trkpt lat="43.84797" lon="-1.35805">
        <ele>18.375898</ele>
        <time>2021-08-15T15:07:03.957Z</time>
      </trkpt>
      <trkpt lat="43.84808" lon="-1.35805">
        <ele>18.353683</ele>
        <time>2021-08-15T15:07:06.107Z</time>
      </trkpt>
      <trkpt lat="43.84817" lon="-1.35806">
        <ele>18.333939</ele>
        <time>2021-08-15T15:07:08.029Z</time>
      </trkpt>
      <trkpt lat="43.84859" lon="-1.35812">
        <ele>18.244459</ele>
        <time>2021-08-15T15:07:16.809Z</time>
      </trkpt>
      <trkpt lat="43.84866" lon="-1.35812">
        <ele>18.229861</ele>
        <time>2021-08-15T15:07:18.369Z</time>
      </trkpt>
      <trkpt lat="43.84866" lon="-1.35817">
        <ele>18.223302</ele>
        <time>2021-08-15T15:07:19.005Z</time>
      </trkpt>
      <trkpt lat="43.84867" lon="-1.35827">
        <ele>18.207623</ele>
        <time>2021-08-15T15:07:20.523Z</time>
      </trkpt>
      <trkpt lat="43.84868" lon="-1.35828">
        <ele>18.205933</ele>
        <time>2021-08-15T15:07:20.633Z</time>
      </trkpt>
      <trkpt lat="43.84876" lon="-1.35864">
        <ele>18.070097</ele>
        <time>2021-08-15T15:07:26.336Z</time>
      </trkpt>
      <trkpt lat="43.84876" lon="-1.35866">
        <ele>18.062191</ele>
        <time>2021-08-15T15:07:26.650Z</time>
      </trkpt>
      <trkpt lat="43.84882" lon="-1.35888">
        <ele>17.977204</ele>
        <time>2021-08-15T15:07:30.015Z</time>
      </trkpt>
      <trkpt lat="43.84883" lon="-1.3589">
        <ele>17.966886</ele>
        <time>2021-08-15T15:07:30.411Z</time>
      </trkpt>
      <trkpt lat="43.84896" lon="-1.35928">
        <ele>17.813815</ele>
        <time>2021-08-15T15:07:36.417Z</time>
      </trkpt>
      <trkpt lat="43.84896" lon="-1.35929">
        <ele>17.809956</ele>
        <time>2021-08-15T15:07:36.539Z</time>
      </trkpt>
      <trkpt lat="43.849" lon="-1.35942">
        <ele>17.758836</ele>
        <time>2021-08-15T15:07:38.520Z</time>
      </trkpt>
      <trkpt lat="43.84903" lon="-1.35952">
        <ele>17.719169</ele>
        <time>2021-08-15T15:07:40.114Z</time>
      </trkpt>
      <trkpt lat="43.84906" lon="-1.35963">
        <ele>17.67629</ele>
        <time>2021-08-15T15:07:41.782Z</time>
      </trkpt>
      <trkpt lat="43.84908" lon="-1.35966">
        <ele>17.663448</ele>
        <time>2021-08-15T15:07:42.265Z</time>
      </trkpt>
      <trkpt lat="43.84911" lon="-1.35976">
        <ele>17.620242</ele>
        <time>2021-08-15T15:07:43.981Z</time>
      </trkpt>
      <trkpt lat="43.8492" lon="-1.35999">
        <ele>17.528781</ele>
        <time>2021-08-15T15:07:47.703Z</time>
      </trkpt>
      <trkpt lat="43.84939" lon="-1.36049">
        <ele>17.319532</ele>
        <time>2021-08-15T15:07:56.297Z</time>
      </trkpt>
      <trkpt lat="43.84945" lon="-1.36057">
        <ele>17.297049</ele>
        <time>2021-08-15T15:07:58.192Z</time>
      </trkpt>
      <trkpt lat="43.84957" lon="-1.36063">
        <ele>17.306258</ele>
        <time>2021-08-15T15:08:01.048Z</time>
      </trkpt>
      <trkpt lat="43.84999" lon="-1.36074">
        <ele>17.335465</ele>
        <time>2021-08-15T15:08:10.648Z</time>
      </trkpt>
      <trkpt lat="43.85046" lon="-1.36073">
        <ele>17.368047</ele>
        <time>2021-08-15T15:08:21.694Z</time>
      </trkpt>
      <trkpt lat="43.85052" lon="-1.36074">
        <ele>17.371814</ele>
        <time>2021-08-15T15:08:22.860Z</time>
      </trkpt>
      <trkpt lat="43.85078" lon="-1.36092">
        <ele>17.391873</ele>
        <time>2021-08-15T15:08:29.465Z</time>
      </trkpt>
      <trkpt lat="43.85108" lon="-1.36123">
        <ele>17.417773</ele>
        <time>2021-08-15T15:08:37.954Z</time>
      </trkpt>
      <trkpt lat="43.85145" lon="-1.36156">
        <ele>17.362453</ele>
        <time>2021-08-15T15:08:47.795Z</time>
      </trkpt>
      <trkpt lat="43.8517" lon="-1.36181">
        <ele>17.321085</ele>
        <time>2021-08-15T15:08:55.326Z</time>
      </trkpt>
      <trkpt lat="43.85181" lon="-1.36198">
        <ele>17.298179</ele>
        <time>2021-08-15T15:08:59.461Z</time>
      </trkpt>
      <trkpt lat="43.85209" lon="-1.36276">
        <ele>17.214907</ele>
        <time>2021-08-15T15:09:12.987Z</time>
      </trkpt>
      <trkpt lat="43.85214" lon="-1.36294">
        <ele>17.195831</ele>
        <time>2021-08-15T15:09:15.937Z</time>
      </trkpt>
      <trkpt lat="43.85226" lon="-1.36304">
        <ele>17.165542</ele>
        <time>2021-08-15T15:09:18.592Z</time>
      </trkpt>
      <trkpt lat="43.85233" lon="-1.36305">
        <ele>17.107239</ele>
        <time>2021-08-15T15:09:19.740Z</time>
      </trkpt>
      <trkpt lat="43.85233" lon="-1.36344">
        <ele>16.863905</ele>
        <time>2021-08-15T15:09:25.291Z</time>
      </trkpt>
      <trkpt lat="43.8523" lon="-1.36397">
        <ele>16.529789</ele>
        <time>2021-08-15T15:09:32.565Z</time>
      </trkpt>
      <trkpt lat="43.85229" lon="-1.36424">
        <ele>16.362698</ele>
        <time>2021-08-15T15:09:36.283Z</time>
      </trkpt>
      <trkpt lat="43.85226" lon="-1.36465">
        <ele>16.108313</ele>
        <time>2021-08-15T15:09:41.790Z</time>
      </trkpt>
      <trkpt lat="43.85224" lon="-1.36505">
        <ele>15.854351</ele>
        <time>2021-08-15T15:09:47.414Z</time>
      </trkpt>
      <trkpt lat="43.85225" lon="-1.36545">
        <ele>15.62941</ele>
        <time>2021-08-15T15:09:53.563Z</time>
      </trkpt>
      <trkpt lat="43.85233" lon="-1.36582">
        <ele>15.756345</ele>
        <time>2021-08-15T15:09:59.730Z</time>
      </trkpt>
      <trkpt lat="43.8527" lon="-1.36674">
        <ele>16.097685</ele>
        <time>2021-08-15T15:10:17.749Z</time>
      </trkpt>
      <trkpt lat="43.85279" lon="-1.36696">
        <ele>16.179465</ele>
        <time>2021-08-15T15:10:23.050Z</time>
      </trkpt>
      <trkpt lat="43.85283" lon="-1.36715">
        <ele>16.243832</ele>
        <time>2021-08-15T15:10:26.520Z</time>
      </trkpt>
      <trkpt lat="43.85287" lon="-1.36741">
        <ele>16.33102</ele>
        <time>2021-08-15T15:10:32.369Z</time>
      </trkpt>
      <trkpt lat="43.85293" lon="-1.36855">
        <ele>16.269137</ele>
        <time>2021-08-15T15:10:52.155Z</time>
      </trkpt>
      <trkpt lat="43.85292" lon="-1.36889">
        <ele>16.201813</ele>
        <time>2021-08-15T15:10:57.852Z</time>
      </trkpt>
      <trkpt lat="43.85291" lon="-1.369">
        <ele>16.181621</ele>
        <time>2021-08-15T15:10:59.201Z</time>
      </trkpt>
      <trkpt lat="43.85283" lon="-1.37">
        <ele>15.98179</ele>
        <time>2021-08-15T15:11:13.412Z</time>
      </trkpt>
      <trkpt lat="43.85275" lon="-1.37081">
        <ele>15.968586</ele>
        <time>2021-08-15T15:11:24.947Z</time>
      </trkpt>
      <trkpt lat="43.85274" lon="-1.3709">
        <ele>15.972671</ele>
        <time>2021-08-15T15:11:26.045Z</time>
      </trkpt>
      <trkpt lat="43.85273" lon="-1.37099">
        <ele>15.976677</ele>
        <time>2021-08-15T15:11:27.415Z</time>
      </trkpt>
      <trkpt lat="43.85265" lon="-1.37171">
        <ele>16.008445</ele>
        <time>2021-08-15T15:11:38.432Z</time>
      </trkpt>
      <trkpt lat="43.85242" lon="-1.37388">
        <ele>17.394013</ele>
        <time>2021-08-15T15:12:22.097Z</time>
      </trkpt>
      <trkpt lat="43.85243" lon="-1.3744">
        <ele>17.969328</ele>
        <time>2021-08-15T15:12:34.001Z</time>
      </trkpt>
      <trkpt lat="43.85243" lon="-1.37454">
        <ele>18.120378</ele>
        <time>2021-08-15T15:12:36.692Z</time>
      </trkpt>
      <trkpt lat="43.85241" lon="-1.37474">
        <ele>18.342509</ele>
        <time>2021-08-15T15:12:41.095Z</time>
      </trkpt>
      <trkpt lat="43.85238" lon="-1.37485">
        <ele>18.474337</ele>
        <time>2021-08-15T15:12:44.299Z</time>
      </trkpt>
      <trkpt lat="43.85228" lon="-1.37511">
        <ele>18.798161</ele>
        <time>2021-08-15T15:12:50.097Z</time>
      </trkpt>
      <trkpt lat="43.85223" lon="-1.3753">
        <ele>18.812468</ele>
        <time>2021-08-15T15:12:54.856Z</time>
      </trkpt>
      <trkpt lat="43.85219" lon="-1.37543">
        <ele>18.823017</ele>
        <time>2021-08-15T15:12:57.518Z</time>
      </trkpt>
      <trkpt lat="43.85209" lon="-1.37572">
        <ele>18.846393</ele>
        <time>2021-08-15T15:13:04.106Z</time>
      </trkpt>
      <trkpt lat="43.85182" lon="-1.37659">
        <ele>18.914989</ele>
        <time>2021-08-15T15:13:20.072Z</time>
      </trkpt>
      <trkpt lat="43.85174" lon="-1.37684">
        <ele>18.934759</ele>
        <time>2021-08-15T15:13:24.351Z</time>
      </trkpt>
      <trkpt lat="43.85157" lon="-1.37738">
        <ele>18.977763</ele>
        <time>2021-08-15T15:13:32.592Z</time>
      </trkpt>
      <trkpt lat="43.85146" lon="-1.37775">
        <ele>18.497527</ele>
        <time>2021-08-15T15:13:37.608Z</time>
      </trkpt>
      <trkpt lat="43.85115" lon="-1.37878">
        <ele>17.083709</ele>
        <time>2021-08-15T15:13:51.594Z</time>
      </trkpt>
      <trkpt lat="43.85114" lon="-1.37924">
        <ele>16.502876</ele>
        <time>2021-08-15T15:13:57.414Z</time>
      </trkpt>
      <trkpt lat="43.85122" lon="-1.37987">
        <ele>15.780774</ele>
        <time>2021-08-15T15:14:05.769Z</time>
      </trkpt>
      <trkpt lat="43.85126" lon="-1.38028">
        <ele>15.634969</ele>
        <time>2021-08-15T15:14:11.461Z</time>
      </trkpt>
      <trkpt lat="43.85143" lon="-1.38169">
        <ele>15.125749</ele>
        <time>2021-08-15T15:14:33.641Z</time>
      </trkpt>
      <trkpt lat="43.85152" lon="-1.38231">
        <ele>14.871635</ele>
        <time>2021-08-15T15:14:44.824Z</time>
      </trkpt>
      <trkpt lat="43.85167" lon="-1.38366">
        <ele>13.920696</ele>
        <time>2021-08-15T15:15:04.291Z</time>
      </trkpt>
      <trkpt lat="43.85168" lon="-1.38374">
        <ele>13.866982</ele>
        <time>2021-08-15T15:15:05.362Z</time>
      </trkpt>
      <trkpt lat="43.85169" lon="-1.38376">
        <ele>13.851366</ele>
        <time>2021-08-15T15:15:05.656Z</time>
      </trkpt>
      <trkpt lat="43.85169" lon="-1.38382">
        <ele>13.810731</ele>
        <time>2021-08-15T15:15:06.408Z</time>
      </trkpt>
      <trkpt lat="43.85169" lon="-1.38387">
        <ele>13.770931</ele>
        <time>2021-08-15T15:15:07.150Z</time>
      </trkpt>
      <trkpt lat="43.8517" lon="-1.3839">
        <ele>13.751023</ele>
        <time>2021-08-15T15:15:07.528Z</time>
      </trkpt>
      <trkpt lat="43.8517" lon="-1.38398">
        <ele>13.692486</ele>
        <time>2021-08-15T15:15:08.754Z</time>
      </trkpt>
      <trkpt lat="43.85187" lon="-1.38538">
        <ele>13.19375</ele>
        <time>2021-08-15T15:15:28.273Z</time>
      </trkpt>
      <trkpt lat="43.85184" lon="-1.38539">
        <ele>13.19375</ele>
        <time>2021-08-15T15:15:29.425Z</time>
      </trkpt>
      <trkpt lat="43.85189" lon="-1.38585">
        <ele>13.19375</ele>
        <time>2021-08-15T15:15:35.481Z</time>
      </trkpt>
      <trkpt lat="43.85186" lon="-1.38586">
        <ele>13.19375</ele>
        <time>2021-08-15T15:15:36.282Z</time>
      </trkpt>
      <trkpt lat="43.85183" lon="-1.38587">
        <ele>13.19375</ele>
        <time>2021-08-15T15:15:37.066Z</time>
      </trkpt>
      <trkpt lat="43.8518" lon="-1.38563">
        <ele>13.19375</ele>
        <time>2021-08-15T15:15:41.251Z</time>
      </trkpt>
      <trkpt lat="43.85175" lon="-1.38551">
        <ele>13.19375</ele>
        <time>2021-08-15T15:15:43.667Z</time>
      </trkpt>
      <trkpt lat="43.85165" lon="-1.38542">
        <ele>13.19375</ele>
        <time>2021-08-15T15:15:46.894Z</time>
      </trkpt>
      <trkpt lat="43.85171" lon="-1.38594">
        <ele>13.19375</ele>
        <time>2021-08-15T15:15:56.859Z</time>
      </trkpt>
    </trkseg>
  </trk>
</gpx>